Terminal Aerodrome Forecast
Issued by NWS Twin Cities, MN

Home | Current Version | Previous Version | Graphics & Text | Print | Product List | Glossary Off
Versions: 1 2 3 4 5 6 7 8 9 10 11 12 13 14 15 16 17 18 19 20 21 22 23 24

070
FTUS43 KMPX 240246 AAA
TAFMSP
TAF AMD
KMSP 240246Z 2403/2506 30011G17KT P6SM BKN050 BKN090
     FM240400 29010KT P6SM SCT070
     FM241600 29014G21KT P6SM VCSH BKN050 PROB30 2420/2422 5SM -TSRA
      BKN040CB
     FM250100 30011KT P6SM SCT060=

USA.gov is the U.S. government's official web portal to all federal, state and local government web resources and services.